Time;durP1;ratioP1;P1;durP2;ratioP2;P2;SDS_P1;SDS_P2;PMS_P1;PMS_P2;Temp;Humidity;BMP_temperature;BMP_pressure;BME280_temperature;BME280_humidity;BME280_pressure;Samples;Min_cycle;Max_cycle;Signal;HPM_P1;HPM_P2
2022/01/16 00:04:45;;;;;;;78.85;28.20;;;2.00;99.90;;;;;;5088768;28;20051;-74
2022/01/16 00:07:11;;;;;;;76.95;27.15;;;2.00;99.90;;;;;;5077781;28;20071;-75
2022/01/16 00:09:37;;;;;;;83.45;28.00;;;2.30;99.90;;;;;;5078272;28;20139;-72
2022/01/16 00:12:06;;;;;;;85.35;28.73;;;2.00;99.90;;;;;;5091244;28;20072;-73
2022/01/16 00:14:32;;;;;;;89.05;30.42;;;2.00;99.90;;;;;;5087211;28;20043;-74
2022/01/16 00:16:59;;;;;;;80.25;30.33;;;2.20;99.90;;;;;;5089408;28;20055;-74
2022/01/16 00:19:26;;;;;;;67.95;25.00;;;1.90;99.90;;;;;;5083838;28;20128;-75
2022/01/16 00:21:52;;;;;;;77.60;27.55;;;1.90;99.90;;;;;;5060022;28;20090;-73
2022/01/16 00:24:18;;;;;;;81.85;25.48;;;1.90;99.90;;;;;;5078481;28;20128;-73
2022/01/16 00:26:43;;;;;;;77.03;28.35;;;1.90;99.90;;;;;;5089330;28;20588;-73
2022/01/16 00:29:11;;;;;;;85.22;31.25;;;2.00;99.90;;;;;;5077708;28;20045;-74
2022/01/16 00:31:39;;;;;;;77.82;27.52;;;2.00;99.90;;;;;;5085061;28;20043;-73
2022/01/16 00:34:06;;;;;;;79.28;28.25;;;1.80;99.90;;;;;;5107775;28;20437;-73
2022/01/16 00:36:33;;;;;;;84.80;29.25;;;1.80;99.90;;;;;;5088965;28;20051;-73
2022/01/16 00:38:59;;;;;;;63.25;25.25;;;2.00;99.90;;;;;;5076309;28;20108;-72
2022/01/16 00:41:25;;;;;;;65.10;24.92;;;1.80;99.90;;;;;;5077568;28;20048;-72
2022/01/16 00:43:53;;;;;;;71.32;27.25;;;1.70;99.90;;;;;;5096023;28;20044;-73
2022/01/16 00:46:19;;;;;;;62.47;24.85;;;2.00;99.90;;;;;;5080565;28;20052;-74
2022/01/16 00:48:45;;;;;;;66.57;24.02;;;1.60;99.90;;;;;;5078854;28;20500;-73
2022/01/16 00:51:13;;;;;;;71.82;25.20;;;1.50;99.90;;;;;;5075750;28;20131;-74
2022/01/16 00:53:39;;;;;;;77.10;25.10;;;1.50;99.90;;;;;;5106153;28;20071;-73
2022/01/16 00:56:06;;;;;;;66.15;23.15;;;1.50;99.90;;;;;;5109767;28;20039;-72
2022/01/16 00:58:32;;;;;;;67.18;24.23;;;1.50;99.90;;;;;;5081737;28;20059;-72
2022/01/16 01:00:58;;;;;;;67.68;24.77;;;1.50;99.90;;;;;;5083696;28;20131;-72
2022/01/16 01:03:25;;;;;;;64.78;24.58;;;1.50;99.90;;;;;;5076977;28;20037;-72
2022/01/16 01:05:51;;;;;;;57.70;22.38;;;1.40;99.90;;;;;;5090582;28;20615;-73
2022/01/16 01:08:17;;;;;;;65.00;28.75;;;1.40;99.90;;;;;;5085948;28;20040;-72
2022/01/16 01:10:47;;;;;;;59.97;24.15;;;1.40;99.90;;;;;;5077222;28;20049;-74
2022/01/16 01:13:23;;;;;;;64.05;24.45;;;1.40;99.90;;;;;;5077885;28;20048;-74
2022/01/16 01:15:52;;;;;;;67.15;27.67;;;1.30;99.90;;;;;;5078044;28;20091;-74
2022/01/16 01:18:22;;;;;;;63.63;24.48;;;1.30;99.90;;;;;;5078029;28;20040;-73
2022/01/16 01:20:50;;;;;;;64.60;23.77;;;1.30;99.90;;;;;;5088592;28;20052;-72
2022/01/16 01:23:16;;;;;;;67.47;24.48;;;1.30;99.90;;;;;;5099438;28;20052;-72
2022/01/16 01:25:42;;;;;;;51.75;22.40;;;1.30;99.90;;;;;;5082061;28;20048;-73
2022/01/16 01:28:09;;;;;;;67.45;24.33;;;1.30;99.90;;;;;;5081841;28;20040;-72
2022/01/16 01:30:37;;;;;;;65.40;23.75;;;1.30;99.90;;;;;;5079397;28;20072;-75
2022/01/16 01:33:02;;;;;;;60.40;24.15;;;1.30;99.90;;;;;;5091517;28;20160;-74
2022/01/16 01:35:28;;;;;;;57.60;22.00;;;1.30;99.90;;;;;;5080867;28;20052;-74
2022/01/16 01:37:54;;;;;;;73.18;27.35;;;1.30;99.90;;;;;;5079037;28;20036;-72
2022/01/16 01:40:25;;;;;;;62.13;23.50;;;1.30;99.90;;;;;;5081385;28;20111;-73
2022/01/16 01:51:26;;;;;;;79.63;26.77;;;1.30;99.90;;;;;;5097129;28;20165;-72
2022/01/16 01:53:55;;;;;;;70.38;25.58;;;1.30;99.90;;;;;;5098495;28;20170;-72
2022/01/16 01:56:23;;;;;;;71.18;26.27;;;1.30;99.90;;;;;;5084331;28;20078;-73
2022/01/16 01:58:50;;;;;;;66.22;25.45;;;1.30;99.90;;;;;;5080890;28;20463;-74
2022/01/16 02:01:16;;;;;;;72.70;26.95;;;1.30;99.90;;;;;;5095713;28;20039;-76
2022/01/16 02:06:37;;;;;;;71.72;27.25;;;1.30;99.90;;;;;;5080326;28;20077;-72
2022/01/16 02:09:06;;;;;;;65.72;25.55;;;1.20;99.90;;;;;;5075210;28;20052;-71
2022/01/16 02:11:32;;;;;;;65.43;23.83;;;1.20;99.90;;;;;;5089763;28;20090;-75
2022/01/16 02:28:13;;;;;;;68.35;26.10;;;1.00;99.90;;;;;;5081788;28;20048;-72
2022/01/16 02:35:44;;;;;;;68.55;25.20;;;1.00;99.90;;;;;;5087220;28;20140;-73
2022/01/16 02:38:11;;;;;;;74.35;25.42;;;1.00;99.90;;;;;;5079519;28;20087;-72
2022/01/16 02:40:41;;;;;;;77.57;26.45;;;1.00;99.90;;;;;;5080562;28;20073;-72
2022/01/16 02:43:07;;;;;;;65.90;24.30;;;1.00;99.90;;;;;;5080139;28;20041;-72
2022/01/16 02:45:36;;;;;;;76.90;27.33;;;1.00;99.90;;;;;;5078028;28;20041;-73
2022/01/16 02:48:07;;;;;;;74.25;25.65;;;1.00;99.90;;;;;;5079817;28;20052;-73
2022/01/16 02:50:35;;;;;;;83.45;27.58;;;1.00;99.90;;;;;;5079295;28;20118;-72
2022/01/16 02:53:07;;;;;;;69.10;23.58;;;1.00;99.90;;;;;;5080249;28;20131;-73
2022/01/16 02:55:33;;;;;;;72.60;24.63;;;1.00;99.90;;;;;;5100210;28;20086;-73
2022/01/16 02:57:58;;;;;;;86.72;27.85;;;1.00;99.90;;;;;;5080067;28;20056;-73
2022/01/16 03:00:24;;;;;;;83.82;28.40;;;1.00;99.90;;;;;;5079291;28;20396;-72
2022/01/16 03:02:51;;;;;;;61.78;23.65;;;1.00;99.90;;;;;;5085338;28;20055;-73
2022/01/16 03:05:17;;;;;;;71.85;23.75;;;1.00;99.90;;;;;;5083748;28;20044;-73
2022/01/16 03:07:43;;;;;;;85.72;27.73;;;0.90;99.90;;;;;;5097826;28;20062;-74
2022/01/16 03:12:45;;;;;;;77.43;25.75;;;1.00;99.90;;;;;;5088801;28;20052;-74
2022/01/16 03:15:13;;;;;;;77.75;25.50;;;1.00;99.90;;;;;;5087919;28;20123;-73
2022/01/16 03:21:52;;;;;;;77.70;26.98;;;1.00;99.90;;;;;;5078994;28;20080;-74
2022/01/16 03:23:12;;;;;;;82.60;27.23;;;1.10;99.90;;;;;;5077904;28;20044;-75
2022/01/16 03:25:38;;;;;;;89.05;24.83;;;1.30;99.90;;;;;;5076671;28;20052;-74
2022/01/16 03:28:04;;;;;;;102.60;28.65;;;1.10;99.90;;;;;;5079743;28;20048;-73
2022/01/16 03:30:30;;;;;;;86.32;27.05;;;1.10;99.90;;;;;;5082863;28;20032;-75
2022/01/16 03:32:56;;;;;;;92.75;27.58;;;1.20;99.90;;;;;;5071859;28;20055;-73
2022/01/16 03:35:22;;;;;;;91.20;28.80;;;1.20;99.90;;;;;;5099349;28;20038;-74
2022/01/16 03:37:48;;;;;;;83.40;26.92;;;1.20;99.90;;;;;;5077704;28;20052;-73
2022/01/16 03:40:14;;;;;;;104.03;30.17;;;1.20;99.90;;;;;;5078223;28;20041;-74
2022/01/16 03:42:40;;;;;;;98.63;29.77;;;1.20;99.90;;;;;;5078145;28;20045;-74
2022/01/16 03:45:08;;;;;;;95.25;32.25;;;1.20;99.90;;;;;;5077657;28;20060;-74
2022/01/16 03:47:34;;;;;;;91.85;29.23;;;1.30;99.90;;;;;;5078150;28;20052;-73
2022/01/16 03:50:00;;;;;;;94.72;29.25;;;1.30;99.90;;;;;;5080240;28;20091;-73
2022/01/16 03:52:26;;;;;;;104.15;32.72;;;1.30;99.90;;;;;;5091074;28;20052;-74
2022/01/16 03:54:52;;;;;;;104.43;31.13;;;2.00;99.90;;;;;;5094822;28;20082;-73
2022/01/16 03:57:18;;;;;;;108.13;33.45;;;1.30;99.90;;;;;;5097403;28;20117;-74
2022/01/16 03:59:43;;;;;;;103.03;32.30;;;1.30;99.90;;;;;;5077964;28;20033;-74
2022/01/16 04:02:09;;;;;;;104.38;33.30;;;1.40;99.90;;;;;;5078553;28;20064;-73
2022/01/16 04:04:35;;;;;;;102.75;33.58;;;1.40;99.90;;;;;;5077135;28;20103;-74
2022/01/16 04:07:01;;;;;;;103.45;32.30;;;1.70;99.90;;;;;;5078533;28;20643;-73
2022/01/16 04:09:28;;;;;;;103.15;28.42;;;1.40;99.90;;;;;;5078613;28;20044;-73
2022/01/16 04:11:57;;;;;;;101.13;29.85;;;1.40;99.90;;;;;;5076724;28;20070;-72
2022/01/16 04:17:19;;;;;;;98.38;32.03;;;1.50;99.90;;;;;;5078282;28;20045;-73
2022/01/16 04:19:46;;;;;;;99.90;30.20;;;1.50;99.90;;;;;;5078682;28;20048;-74
2022/01/16 04:22:13;;;;;;;95.68;31.02;;;1.50;99.90;;;;;;5087061;28;20041;-73
2022/01/16 04:24:39;;;;;;;111.43;31.80;;;1.60;99.90;;;;;;5099152;28;20617;-73
2022/01/16 04:27:06;;;;;;;90.40;28.05;;;1.60;99.90;;;;;;5099632;28;20082;-73
2022/01/16 04:29:31;;;;;;;103.85;30.52;;;1.60;99.90;;;;;;5083855;28;20045;-75
2022/01/16 04:31:57;;;;;;;101.97;30.63;;;1.70;99.90;;;;;;5086021;28;20047;-73
2022/01/16 04:34:23;;;;;;;99.25;32.03;;;2.40;99.90;;;;;;5080388;28;20094;-73
2022/01/16 04:36:49;;;;;;;106.63;33.25;;;1.70;99.90;;;;;;5089903;28;20044;-79
2022/01/16 04:39:18;;;;;;;120.88;36.13;;;1.80;99.90;;;;;;5085286;28;20036;-74
2022/01/16 04:44:29;;;;;;;106.30;29.42;;;1.70;99.90;;;;;;5079081;28;20072;-74
2022/01/16 04:46:55;;;;;;;115.68;33.25;;;1.70;99.90;;;;;;5077987;28;20056;-74
2022/01/16 04:49:21;;;;;;;104.60;33.13;;;1.80;99.90;;;;;;5076724;28;20192;-75
2022/01/16 04:51:47;;;;;;;91.88;29.52;;;1.80;99.90;;;;;;5078110;28;20151;-75
2022/01/16 04:54:13;;;;;;;99.53;30.88;;;1.90;99.90;;;;;;5078616;28;20114;-74
2022/01/16 04:56:39;;;;;;;92.97;30.95;;;1.80;99.90;;;;;;5084179;28;20044;-74
2022/01/16 04:59:05;;;;;;;107.32;31.60;;;1.90;99.90;;;;;;5081772;28;20040;-73
2022/01/16 05:01:31;;;;;;;73.53;25.73;;;2.50;99.90;;;;;;5082102;28;20531;-78
2022/01/16 05:03:57;;;;;;;107.70;32.92;;;3.00;99.90;;;;;;5080041;28;20132;-78
2022/01/16 05:06:23;;;;;;;112.03;32.65;;;2.00;99.90;;;;;;5081950;28;20473;-74
2022/01/16 05:08:49;;;;;;;89.70;28.08;;;1.90;99.90;;;;;;5081694;28;20056;-76
2022/01/16 05:11:20;;;;;;;98.55;34.58;;;2.40;99.90;;;;;;5082017;28;20158;-75
2022/01/16 05:18:57;;;;;;;89.40;28.58;;;2.00;99.90;;;;;;5089606;28;20079;-73
2022/01/16 05:21:22;;;;;;;102.03;33.08;;;2.00;99.90;;;;;;5081454;28;20051;-75
2022/01/16 05:23:49;;;;;;;85.38;28.10;;;2.10;99.90;;;;;;5081528;28;20052;-74
2022/01/16 05:26:24;;;;;;;96.78;31.75;;;2.10;99.90;;;;;;5063439;28;20131;-73
2022/01/16 05:28:50;;;;;;;103.40;34.40;;;2.10;99.90;;;;;;5080991;28;20158;-75
2022/01/16 05:31:16;;;;;;;94.43;33.47;;;2.10;99.90;;;;;;5080222;28;20080;-75
2022/01/16 05:33:42;;;;;;;108.45;32.75;;;2.10;99.90;;;;;;5113696;28;20720;-73
2022/01/16 05:36:08;;;;;;;95.68;33.03;;;2.10;99.90;;;;;;5095997;28;20098;-73
2022/01/16 05:38:34;;;;;;;94.15;31.73;;;2.10;99.90;;;;;;5081204;28;20051;-73
2022/01/16 05:40:59;;;;;;;101.38;32.25;;;2.10;99.90;;;;;;5099934;28;20080;-74
2022/01/16 05:43:25;;;;;;;90.68;32.03;;;2.10;99.90;;;;;;5084444;28;20385;-73
2022/01/16 05:45:51;;;;;;;93.20;30.73;;;2.10;99.90;;;;;;5081225;28;20037;-78
2022/01/16 05:48:16;;;;;;;103.47;34.05;;;2.20;99.90;;;;;;5079330;28;20047;-73
2022/01/16 05:50:42;;;;;;;100.43;32.05;;;2.20;99.90;;;;;;5080378;28;20056;-74
2022/01/16 05:53:08;;;;;;;91.47;33.30;;;2.10;99.90;;;;;;5080200;28;20056;-74
2022/01/16 05:55:36;;;;;;;94.38;28.67;;;2.10;99.90;;;;;;5083391;28;20096;-75
2022/01/16 05:58:06;;;;;;;92.80;30.95;;;2.10;99.90;;;;;;5080236;28;20167;-73
2022/01/16 06:00:34;;;;;;;104.90;34.72;;;2.50;99.90;;;;;;5090115;28;20404;-73
2022/01/16 06:03:00;;;;;;;94.63;31.08;;;2.10;99.90;;;;;;5081168;28;20106;-75
2022/01/16 06:05:26;;;;;;;103.60;35.42;;;2.10;99.90;;;;;;5081043;28;20056;-73
2022/01/16 06:08:07;;;;;;;98.97;33.70;;;2.10;99.90;;;;;;5079600;28;20050;-73
2022/01/16 06:10:33;;;;;;;104.80;34.75;;;2.10;99.90;;;;;;5080496;28;20032;-73
2022/01/16 06:12:58;;;;;;;98.05;32.53;;;2.20;99.90;;;;;;5079014;28;20048;-73
2022/01/16 06:15:24;;;;;;;101.43;32.53;;;2.20;99.90;;;;;;5080805;28;20102;-73
2022/01/16 06:17:50;;;;;;;87.82;28.33;;;2.20;99.90;;;;;;5078910;28;20044;-73
2022/01/16 06:20:16;;;;;;;90.57;29.05;;;2.50;99.90;;;;;;5080231;28;20040;-75
2022/01/16 06:22:43;;;;;;;107.22;35.85;;;2.20;99.90;;;;;;5079783;28;20033;-77
2022/01/16 06:25:11;;;;;;;94.78;31.20;;;2.30;99.90;;;;;;5084942;28;20060;-73
2022/01/16 06:27:36;;;;;;;81.47;28.80;;;2.30;99.90;;;;;;5080885;28;20037;-74
2022/01/16 06:30:08;;;;;;;97.43;32.13;;;2.30;99.90;;;;;;5078336;28;20066;-73
2022/01/16 06:32:34;;;;;;;102.18;31.42;;;2.30;99.90;;;;;;5079967;28;20036;-75
2022/01/16 06:35:00;;;;;;;110.38;38.47;;;2.40;99.90;;;;;;5093767;28;20111;-74
2022/01/16 06:37:25;;;;;;;94.10;30.48;;;2.40;99.90;;;;;;5087375;28;20048;-77
2022/01/16 06:39:51;;;;;;;110.93;32.88;;;2.40;99.90;;;;;;5089330;28;20036;-75
2022/01/16 06:42:17;;;;;;;100.53;33.55;;;2.40;99.90;;;;;;5093444;28;20052;-74
2022/01/16 06:44:43;;;;;;;102.05;32.22;;;2.40;99.90;;;;;;5092492;28;20064;-74
2022/01/16 06:47:09;;;;;;;104.38;32.38;;;2.40;99.90;;;;;;5084144;28;20044;-75
2022/01/16 06:49:35;;;;;;;102.10;33.33;;;2.50;99.90;;;;;;5089414;28;20148;-73
2022/01/16 06:52:01;;;;;;;102.07;32.95;;;2.40;99.90;;;;;;5089654;28;20110;-73
2022/01/16 06:54:27;;;;;;;115.93;36.63;;;2.50;99.90;;;;;;5085201;28;20048;-73
2022/01/16 06:56:52;;;;;;;97.28;32.38;;;2.50;99.90;;;;;;5078722;28;20358;-73
2022/01/16 06:59:18;;;;;;;98.60;32.03;;;2.60;99.90;;;;;;5079029;28;20063;-76
2022/01/16 07:01:44;;;;;;;100.20;30.08;;;2.50;99.90;;;;;;5080159;28;20591;-78
2022/01/16 07:04:09;;;;;;;105.55;31.77;;;2.50;99.90;;;;;;5079153;28;20048;-73
2022/01/16 07:06:35;;;;;;;116.15;37.30;;;2.60;99.90;;;;;;5079526;28;20068;-73
2022/01/16 07:09:01;;;;;;;100.80;32.92;;;2.60;99.90;;;;;;5061246;28;20096;-77
2022/01/16 07:11:27;;;;;;;100.10;33.13;;;2.60;99.90;;;;;;5077756;28;20051;-73
2022/01/16 07:13:52;;;;;;;94.25;29.30;;;2.60;99.90;;;;;;5067432;28;20498;-80
2022/01/16 07:16:18;;;;;;;87.63;29.33;;;2.60;99.90;;;;;;5078980;28;20044;-74
2022/01/16 07:18:44;;;;;;;115.57;37.92;;;2.70;99.90;;;;;;5079755;28;20037;-74
2022/01/16 07:21:13;;;;;;;94.85;32.45;;;2.70;99.90;;;;;;5079692;28;20496;-73
2022/01/16 07:23:43;;;;;;;99.07;33.53;;;2.70;99.90;;;;;;5098235;28;20052;-74
2022/01/16 07:26:09;;;;;;;106.53;32.08;;;3.80;99.90;;;;;;5078715;28;20122;-74
2022/01/16 07:28:35;;;;;;;105.80;34.65;;;2.70;99.90;;;;;;5079315;28;20053;-74
2022/01/16 07:31:02;;;;;;;105.80;35.42;;;2.70;99.90;;;;;;5087163;28;20044;-73
2022/01/16 07:33:27;;;;;;;99.60;31.45;;;2.70;99.90;;;;;;5082436;28;20041;-75
2022/01/16 07:35:53;;;;;;;99.15;32.55;;;2.70;99.90;;;;;;5094566;28;20056;-74
2022/01/16 07:38:19;;;;;;;101.18;32.65;;;3.00;99.90;;;;;;5076991;28;20049;-73
2022/01/16 07:40:44;;;;;;;109.28;32.88;;;2.80;99.90;;;;;;5079495;28;20040;-73
2022/01/16 07:43:10;;;;;;;101.22;33.03;;;2.80;99.90;;;;;;5091439;28;20081;-71
2022/01/16 07:45:37;;;;;;;108.55;34.17;;;2.90;99.90;;;;;;5097952;28;20189;-72
2022/01/16 07:48:07;;;;;;;111.65;33.72;;;2.80;99.90;;;;;;5099185;28;20055;-74
2022/01/16 07:50:35;;;;;;;104.43;33.72;;;2.80;99.90;;;;;;5083639;28;20063;-73
2022/01/16 07:53:00;;;;;;;98.35;31.30;;;2.90;99.90;;;;;;5079408;28;20106;-75
2022/01/16 07:55:26;;;;;;;92.82;32.30;;;2.90;99.90;;;;;;5082132;28;20038;-73
2022/01/16 07:57:54;;;;;;;94.40;32.58;;;2.90;99.90;;;;;;5079285;28;20064;-75
2022/01/16 08:00:20;;;;;;;99.85;29.55;;;3.00;99.90;;;;;;5078610;28;20120;-72
2022/01/16 08:02:47;;;;;;;107.88;35.20;;;3.40;99.90;;;;;;5090049;28;20044;-73
2022/01/16 08:05:12;;;;;;;93.55;33.00;;;3.20;99.90;;;;;;5083885;28;20094;-73
2022/01/16 08:07:38;;;;;;;100.45;31.70;;;3.00;99.90;;;;;;5077833;28;20052;-73
2022/01/16 08:10:04;;;;;;;98.38;33.75;;;3.00;99.90;;;;;;5078977;28;20094;-73
2022/01/16 08:12:30;;;;;;;88.68;29.30;;;3.10;99.90;;;;;;5077984;28;20047;-74
2022/01/16 08:14:56;;;;;;;107.28;32.80;;;3.10;99.90;;;;;;5077756;28;20052;-75
2022/01/16 08:17:22;;;;;;;105.40;32.65;;;3.10;99.90;;;;;;5078288;28;20484;-75
2022/01/16 08:19:47;;;;;;;71.68;26.58;;;3.30;99.90;;;;;;5090841;28;20052;-75
2022/01/16 08:22:13;;;;;;;108.47;36.95;;;3.20;99.90;;;;;;5098850;28;20048;-75
2022/01/16 08:24:39;;;;;;;90.63;29.95;;;3.20;99.90;;;;;;5088040;28;20508;-74
2022/01/16 08:27:05;;;;;;;91.75;32.60;;;3.20;99.90;;;;;;5078653;28;20060;-76
2022/01/16 08:29:30;;;;;;;89.93;33.85;;;3.30;99.90;;;;;;5059693;28;20080;-75
2022/01/16 08:31:56;;;;;;;103.65;33.35;;;3.30;99.90;;;;;;5097841;28;20069;-75
2022/01/16 08:34:22;;;;;;;94.00;33.10;;;3.30;99.90;;;;;;5092751;28;20041;-73
2022/01/16 08:36:47;;;;;;;103.72;31.95;;;3.30;99.90;;;;;;5080754;28;20051;-73
2022/01/16 08:39:14;;;;;;;96.32;29.83;;;3.30;99.90;;;;;;5082763;28;20045;-74
2022/01/16 08:41:40;;;;;;;100.78;32.08;;;3.30;99.90;;;;;;5082861;28;20044;-76
2022/01/16 08:44:06;;;;;;;97.32;33.92;;;3.70;99.90;;;;;;5094582;28;20051;-74
2022/01/16 08:46:33;;;;;;;90.47;32.40;;;3.40;99.90;;;;;;5086638;28;20182;-73
2022/01/16 08:49:00;;;;;;;99.90;32.33;;;3.40;99.90;;;;;;5084894;28;20048;-74
2022/01/16 08:51:26;;;;;;;103.03;35.15;;;3.50;99.90;;;;;;5100050;28;20047;-74
2022/01/16 08:53:51;;;;;;;101.60;34.38;;;3.50;99.90;;;;;;5082922;28;20040;-73
2022/01/16 08:56:17;;;;;;;83.60;31.42;;;3.60;99.90;;;;;;5087940;28;20500;-74
2022/01/16 08:58:43;;;;;;;89.90;32.58;;;3.70;99.90;;;;;;5087170;28;20048;-75
2022/01/16 09:01:09;;;;;;;81.55;28.23;;;3.70;99.90;;;;;;5097102;28;20043;-74
2022/01/16 09:03:36;;;;;;;93.53;33.70;;;3.70;99.90;;;;;;5085960;28;20094;-73
2022/01/16 09:06:01;;;;;;;92.28;35.40;;;3.80;99.90;;;;;;5098864;28;20050;-74
2022/01/16 09:08:27;;;;;;;91.15;31.73;;;3.80;99.90;;;;;;5092741;28;20072;-73
2022/01/16 09:10:53;;;;;;;91.70;33.13;;;3.80;99.90;;;;;;5100198;28;20081;-74
2022/01/16 09:13:19;;;;;;;89.72;30.52;;;3.80;99.90;;;;;;5084446;28;20045;-72
2022/01/16 09:15:48;;;;;;;87.60;33.70;;;3.80;99.90;;;;;;5081559;28;20037;-73
2022/01/16 09:18:14;;;;;;;82.95;30.90;;;3.90;99.90;;;;;;5100577;28;20066;-73
2022/01/16 09:20:40;;;;;;;73.28;26.92;;;3.90;99.90;;;;;;5081267;28;20064;-74
2022/01/16 09:23:08;;;;;;;78.47;29.40;;;3.90;99.90;;;;;;5080686;28;20040;-73
2022/01/16 09:25:34;;;;;;;87.32;30.40;;;4.00;99.90;;;;;;5092477;28;20099;-74
2022/01/16 09:28:00;;;;;;;83.05;32.60;;;4.10;99.90;;;;;;5097854;28;20045;-73
2022/01/16 09:30:27;;;;;;;82.43;31.02;;;4.00;99.90;;;;;;5083432;28;20074;-73
2022/01/16 09:32:53;;;;;;;79.43;30.05;;;4.00;99.90;;;;;;5100594;28;20476;-73
2022/01/16 09:35:19;;;;;;;81.80;30.73;;;4.20;99.90;;;;;;5081627;28;20055;-73
2022/01/16 09:37:46;;;;;;;77.95;32.30;;;4.30;99.90;;;;;;5078850;28;20055;-75
2022/01/16 09:40:14;;;;;;;64.15;28.25;;;4.10;99.90;;;;;;5100932;28;20078;-75
2022/01/16 09:42:40;;;;;;;81.25;31.40;;;4.20;99.90;;;;;;5091364;28;20057;-73
2022/01/16 09:45:09;;;;;;;79.88;29.65;;;4.20;99.90;;;;;;5080921;28;20036;-72
2022/01/16 09:47:36;;;;;;;81.85;28.52;;;4.20;99.90;;;;;;5083301;28;20044;-74
2022/01/16 09:50:04;;;;;;;74.72;29.70;;;4.20;99.90;;;;;;5085294;28;20051;-75
2022/01/16 09:52:35;;;;;;;72.55;29.45;;;4.20;99.90;;;;;;5082419;28;20075;-73
2022/01/16 09:55:01;;;;;;;81.13;29.67;;;4.30;99.90;;;;;;5103886;28;20039;-75
2022/01/16 09:57:27;;;;;;;72.75;29.40;;;4.30;99.90;;;;;;5087158;28;20037;-75
2022/01/16 09:59:52;;;;;;;82.95;30.00;;;4.30;99.90;;;;;;5081294;28;20040;-72
2022/01/16 10:02:18;;;;;;;76.15;30.20;;;4.40;99.90;;;;;;5081174;28;20037;-75
2022/01/16 10:04:44;;;;;;;67.25;28.38;;;4.40;99.90;;;;;;5079268;28;20051;-75
2022/01/16 10:07:13;;;;;;;74.20;30.10;;;4.40;99.90;;;;;;5080541;28;20048;-74
2022/01/16 10:09:44;;;;;;;73.43;28.88;;;4.50;99.90;;;;;;5081287;28;20044;-76
2022/01/16 10:12:16;;;;;;;74.60;28.27;;;4.40;99.90;;;;;;5093552;28;20052;-78
2022/01/16 10:14:47;;;;;;;72.38;28.55;;;4.40;99.90;;;;;;5121412;28;20111;-74
2022/01/16 10:17:25;;;;;;;68.47;25.88;;;4.50;99.90;;;;;;5120750;28;20047;-76
2022/01/16 10:20:07;;;;;;;59.75;28.05;;;4.50;99.90;;;;;;5119545;28;20202;-76
2022/01/16 10:22:38;;;;;;;64.50;28.00;;;4.50;99.90;;;;;;5120977;28;20047;-75
2022/01/16 10:25:04;;;;;;;66.10;26.88;;;4.50;99.90;;;;;;5100326;28;20127;-76
2022/01/16 10:27:34;;;;;;;74.40;29.70;;;4.50;99.90;;;;;;5081859;28;20500;-76
2022/01/16 10:30:02;;;;;;;71.22;28.92;;;4.60;99.90;;;;;;5082991;28;20040;-75
2022/01/16 10:32:31;;;;;;;70.60;29.15;;;4.50;99.90;;;;;;5110879;28;20047;-74
2022/01/16 10:35:09;;;;;;;71.75;30.23;;;4.70;99.90;;;;;;5120965;28;20044;-72
2022/01/16 10:37:35;;;;;;;69.00;30.77;;;4.60;99.90;;;;;;5120404;28;20471;-74
2022/01/16 10:40:19;;;;;;;69.97;30.73;;;4.60;99.90;;;;;;5120988;28;20080;-77
2022/01/16 10:42:51;;;;;;;64.63;27.55;;;4.60;99.90;;;;;;5111731;28;20048;-73
2022/01/16 10:45:18;;;;;;;73.15;28.67;;;4.90;99.90;;;;;;5100572;28;20047;-73
2022/01/16 10:47:45;;;;;;;59.28;26.42;;;4.70;99.90;;;;;;5099884;28;20043;-75
2022/01/16 10:50:28;;;;;;;64.78;29.20;;;4.70;99.90;;;;;;5100194;28;20071;-76
2022/01/16 10:52:56;;;;;;;56.55;23.88;;;4.70;99.90;;;;;;5099440;28;20044;-72
2022/01/16 10:55:34;;;;;;;65.90;28.45;;;4.70;99.90;;;;;;5108060;28;20052;-76
2022/01/16 10:58:12;;;;;;;54.08;25.50;;;4.80;99.90;;;;;;5120710;28;20070;-73
2022/01/16 11:00:40;;;;;;;58.35;24.52;;;4.70;99.90;;;;;;5120389;28;20047;-74
2022/01/16 11:03:07;;;;;;;62.35;26.20;;;4.70;99.90;;;;;;5120216;28;20077;-72
2022/01/16 11:05:36;;;;;;;53.40;25.60;;;4.80;99.90;;;;;;5120942;28;20039;-72
2022/01/16 11:08:06;;;;;;;63.45;26.35;;;4.80;99.90;;;;;;5119531;28;20071;-72
2022/01/16 11:10:34;;;;;;;61.20;25.50;;;4.90;99.90;;;;;;5109123;28;20059;-71
2022/01/16 11:13:04;;;;;;;64.68;29.13;;;4.90;99.90;;;;;;5099770;28;20052;-73
2022/01/16 11:15:31;;;;;;;54.92;24.25;;;5.00;99.90;;;;;;5100118;28;20123;-72
2022/01/16 11:17:57;;;;;;;49.05;21.30;;;5.10;99.90;;;;;;5099800;28;20100;-73
2022/01/16 11:20:36;;;;;;;47.17;22.13;;;5.00;99.90;;;;;;5099364;28;20067;-72
2022/01/16 11:23:11;;;;;;;50.42;21.02;;;5.00;99.90;;;;;;5098848;28;20051;-74
2022/01/16 11:25:39;;;;;;;55.50;23.25;;;5.10;99.90;;;;;;5097859;28;20056;-73
2022/01/16 11:28:08;;;;;;;47.78;21.50;;;5.10;99.90;;;;;;5100220;28;20073;-73
2022/01/16 11:30:38;;;;;;;40.90;20.50;;;5.10;99.90;;;;;;5099441;28;20051;-72
2022/01/16 11:33:04;;;;;;;48.80;22.35;;;5.10;99.90;;;;;;5099193;28;20126;-72
2022/01/16 11:35:32;;;;;;;50.35;22.80;;;5.20;99.90;;;;;;5099437;28;20052;-74
2022/01/16 11:37:59;;;;;;;47.08;22.02;;;5.20;99.90;;;;;;5098478;28;20439;-72
2022/01/16 11:40:44;;;;;;;43.28;20.65;;;5.20;99.90;;;;;;5100006;28;20520;-72
2022/01/16 11:43:17;;;;;;;50.22;21.42;;;5.20;99.90;;;;;;5099369;28;20104;-72
2022/01/16 11:45:47;;;;;;;48.85;22.15;;;5.20;99.90;;;;;;5099163;28;20044;-73
2022/01/16 11:48:17;;;;;;;44.50;21.08;;;5.30;99.90;;;;;;5099789;28;20472;-73
2022/01/16 11:50:43;;;;;;;41.83;19.20;;;5.20;99.90;;;;;;5098853;28;20040;-72
2022/01/16 11:53:09;;;;;;;44.08;20.40;;;5.20;99.90;;;;;;5099925;28;20040;-72
2022/01/16 11:55:35;;;;;;;43.80;20.05;;;5.30;99.90;;;;;;5111051;28;20057;-72
2022/01/16 11:58:01;;;;;;;42.95;21.45;;;5.30;99.90;;;;;;5120248;28;20099;-72
2022/01/16 12:00:48;;;;;;;35.53;18.42;;;5.30;99.90;;;;;;5119633;28;20043;-72
2022/01/16 12:03:34;;;;;;;46.63;22.70;;;5.30;99.90;;;;;;5119021;28;20055;-72
2022/01/16 12:06:32;;;;;;;40.78;20.02;;;5.40;99.90;;;;;;5119977;28;20054;-74
2022/01/16 12:09:00;;;;;;;43.45;19.33;;;5.30;99.90;;;;;;5119500;28;20079;-72
2022/01/16 12:11:38;;;;;;;36.72;17.33;;;5.40;99.90;;;;;;5098723;28;20046;-72
2022/01/16 12:14:04;;;;;;;42.10;18.83;;;5.50;99.90;;;;;;5086735;28;20043;-72
2022/01/16 12:16:43;;;;;;;38.80;17.20;;;5.40;99.90;;;;;;5087700;28;20103;-72
2022/01/16 12:19:43;;;;;;;37.25;17.42;;;5.40;99.90;;;;;;5090235;28;20214;-72
2022/01/16 12:22:12;;;;;;;37.17;15.90;;;5.50;99.90;;;;;;5058085;28;20052;-72
2022/01/16 12:24:38;;;;;;;39.50;17.63;;;5.40;99.90;;;;;;5089543;28;20097;-72
2022/01/16 12:27:45;;;;;;;30.55;15.15;;;5.40;99.90;;;;;;5099481;28;20098;-71
2022/01/16 12:30:16;;;;;;;29.48;14.35;;;5.40;99.90;;;;;;5075747;28;20060;-71
2022/01/16 12:32:55;;;;;;;25.13;12.85;;;5.50;99.90;;;;;;5099027;28;20874;-71
2022/01/16 12:35:44;;;;;;;27.83;10.77;;;5.50;99.90;;;;;;5099166;28;20093;-72
2022/01/16 12:38:13;;;;;;;22.65;11.02;;;5.60;99.90;;;;;;5098096;28;20048;-73
2022/01/16 12:40:43;;;;;;;17.83;9.23;;;5.60;99.90;;;;;;5099381;28;20040;-72
2022/01/16 12:43:12;;;;;;;16.58;9.95;;;5.70;99.90;;;;;;5098734;28;20087;-71
2022/01/16 12:45:39;;;;;;;19.38;9.40;;;5.80;99.90;;;;;;5098845;28;20052;-72
2022/01/16 12:48:06;;;;;;;19.05;9.35;;;5.80;99.90;;;;;;5097713;28;20051;-73
2022/01/16 12:50:33;;;;;;;14.77;9.00;;;5.90;99.90;;;;;;5096318;28;20048;-71
2022/01/16 12:52:59;;;;;;;20.50;10.50;;;5.90;99.90;;;;;;5098886;28;20113;-73
2022/01/16 12:55:29;;;;;;;18.05;8.45;;;5.90;99.90;;;;;;5108886;28;20044;-72
2022/01/16 12:58:14;;;;;;;18.02;8.32;;;6.00;99.90;;;;;;5117958;28;20487;-72
2022/01/16 13:00:59;;;;;;;18.15;8.43;;;6.00;99.90;;;;;;5119237;28;20067;-73
2022/01/16 13:03:26;;;;;;;20.48;9.20;;;6.00;99.90;;;;;;5118426;28;20044;-73
2022/01/16 13:06:12;;;;;;;19.67;9.10;;;6.00;99.90;;;;;;5119477;28;20063;-72
2022/01/16 13:09:11;;;;;;;19.10;8.65;;;6.00;99.90;;;;;;5118207;28;20055;-73
2022/01/16 13:11:41;;;;;;;19.02;9.20;;;6.10;99.90;;;;;;5094929;28;20093;-72
2022/01/16 13:14:09;;;;;;;19.05;9.25;;;6.10;99.90;;;;;;5119558;28;20115;-74
2022/01/16 13:16:37;;;;;;;21.50;9.93;;;6.10;99.90;;;;;;5118005;28;20040;-73
2022/01/16 13:19:11;;;;;;;19.13;9.00;;;6.10;99.90;;;;;;5121876;28;20427;-72
2022/01/16 13:22:13;;;;;;;20.52;9.43;;;6.10;99.90;;;;;;5122579;27;20051;-72
2022/01/16 13:24:52;;;;;;;21.88;9.57;;;6.10;99.90;;;;;;5121875;28;20123;-72
2022/01/16 13:27:27;;;;;;;21.75;10.25;;;6.10;99.90;;;;;;5123026;28;20115;-72
2022/01/16 13:29:59;;;;;;;21.17;10.73;;;6.10;99.90;;;;;;5121780;28;20119;-72
2022/01/16 13:32:34;;;;;;;22.63;10.05;;;6.10;99.90;;;;;;5120378;28;20040;-73